General Rodolfo Sanchez Taboada International Airport


Codes: MMML/MXL
Name: General Rodolfo Sanchez Taboada International Airport
City: Mexicali
Country: Mexico
Elevation: 74 ft.
Website:
Wikipedia:

Photos at General Rodolfo Sanchez Taboada International Airport


   Photos courtesy of SpottingLog. You can add your own sightings and photos by signing up for a free trial today.



No photos found.

Weather at General Rodolfo Sanchez Taboada International Airport


Time (UTC)DescriptionTempratureWindCloud coverageVisibilityPressureHumidity
19-Apr-2024 06:00Few Clouds25°C4 mph, E18%10000m1008hPa28%
19-Apr-2024 09:00Clear Sky22°C4 mph, N0%10000m1009hPa34%
19-Apr-2024 12:00Few Clouds17°C4 mph, NW12%10000m1009hPa37%
19-Apr-2024 15:00Scattered Clouds23°C4 mph, NW40%10000m1010hPa27%
19-Apr-2024 18:00Few Clouds30°C4 mph, W20%10000m1009hPa12%
19-Apr-2024 21:00Clear Sky34°C7 mph, W0%10000m1007hPa8%
20-Apr-2024 00:00Clear Sky33°C18 mph, W0%10000m1005hPa13%
20-Apr-2024 03:00Clear Sky25°C16 mph, W0%10000m1006hPa22%
20-Apr-2024 06:00Clear Sky21°C9 mph, W0%10000m1008hPa28%
20-Apr-2024 09:00Clear Sky19°C7 mph, NW0%10000m1009hPa32%
20-Apr-2024 12:00Clear Sky17°C4 mph, NW0%10000m1010hPa37%
20-Apr-2024 15:00Clear Sky22°C0 mph, S0%10000m1012hPa26%
20-Apr-2024 18:00Clear Sky30°C2 mph, S0%10000m1013hPa13%
20-Apr-2024 21:00Clear Sky34°C2 mph, S0%10000m1011hPa9%
21-Apr-2024 00:00Clear Sky35°C4 mph, S0%10000m1009hPa8%
21-Apr-2024 03:00Clear Sky26°C11 mph, S0%10000m1010hPa20%
21-Apr-2024 06:00Scattered Clouds23°C9 mph, S39%10000m1012hPa33%
21-Apr-2024 09:00Overcast Clouds21°C4 mph, SE100%10000m1011hPa30%
21-Apr-2024 12:00Overcast Clouds20°C4 mph, SE100%10000m1011hPa35%
21-Apr-2024 15:00Overcast Clouds24°C4 mph, SE100%10000m1012hPa31%
21-Apr-2024 18:00Overcast Clouds32°C7 mph, SE86%10000m1012hPa16%
21-Apr-2024 21:00Clear Sky36°C11 mph, SE0%10000m1009hPa9%
22-Apr-2024 00:00Clear Sky35°C11 mph, SE0%10000m1007hPa8%
22-Apr-2024 03:00Clear Sky27°C13 mph, SE0%10000m1007hPa16%
22-Apr-2024 06:00Clear Sky22°C11 mph, S0%10000m1008hPa31%
22-Apr-2024 09:00Clear Sky20°C7 mph, SE0%10000m1007hPa35%
22-Apr-2024 12:00Clear Sky19°C7 mph, SE0%10000m1007hPa39%
22-Apr-2024 15:00Clear Sky24°C9 mph, S0%10000m1008hPa33%
22-Apr-2024 18:00Clear Sky31°C7 mph, SE1%10000m1008hPa20%
22-Apr-2024 21:00Few Clouds35°C7 mph, SE11%10000m1005hPa12%
23-Apr-2024 00:00Scattered Clouds35°C18 mph, SE40%10000m1003hPa13%
23-Apr-2024 03:00Clear Sky25°C9 mph, SE2%10000m1005hPa21%
23-Apr-2024 06:00Clear Sky20°C2 mph, E1%10000m1006hPa37%
23-Apr-2024 09:00Clear Sky20°C4 mph, NW0%10000m1007hPa41%
23-Apr-2024 12:00Clear Sky18°C4 mph, NW0%10000m1007hPa44%
23-Apr-2024 15:00Clear Sky22°C2 mph, SW0%10000m1010hPa34%
23-Apr-2024 18:00Clear Sky29°C7 mph, S0%10000m1010hPa20%
23-Apr-2024 21:00Clear Sky33°C4 mph, S0%10000m1008hPa13%
24-Apr-2024 00:00Clear Sky33°C7 mph, NW0%10000m1006hPa11%
24-Apr-2024 03:00Broken Clouds25°C4 mph, N56%10000m1008hPa24%